Kezdőlap
METAR-TAF:

METAR-TAF

Repülőterek :

Tarawa, Kiribati

földrajzi szélesség: 01-21N, földrajzi hosszúság: 172-55E, magasság: 2 m

Jelenlegi meteorológiai megfigyelések

A jelentés 1 órával és 6 perccel ezelõtt készült, 18:00 UTC
Kelet-délkeleti szél 10 kt
Hőmérséklet 28°C
Páratartalom 84%
Légköri nyomás 1009 hPa
Látótávolság 10 km, vagy több
Szórványos felhőzet 2000 lábon

METAR: NGTA 191800Z 11010KT 9999 SCT020 28/25 Q1009

Idő: 09:06 (19:06 UTC)

Előrejelzés

A jelentés 2 órával és 0 perccel ezelõtt készült, 17:06 UTC
Az előrejelzés 19-én 18 óra UTC és 20-én 18 óra UTC között érvényes
Keleti szél 10 kt
Látótávolság 10 km, vagy több
Kevés felhő 2000 lábon

TAF: NGTA 191706Z 1918/2018 08010KT 9999 FEW020

Meteorológiai megfigyelések és előrejelzések több, mint 4000 repülőtéren (METAR és TAF jelentéseket).

A térképen piros és sárga pontok jelzik az elérhető meteorológiai állomásokat.

Mozgassa az egeret a pont fölött, hogy megjelenjen az állomás neve.

Azután kattintson az időjárási megfigyelések és előrejelzések megtekintéséhez.

A térkép megváltoztatása: kattintson a fekete keresztel jelölt zöld gombra ráközelítéshez, a vonallal jelölt zöld gombra távolításhoz, vagy a zöld nyilakra a szomszédos térképek eléréséhez.


METAR-TAF: